sensor_id;sensor_type;location;lat;lon;timestamp;temperature;humidity
12013;DHT22;6065;48.138;16.402;2023-07-31T00:02:18;21.80;94.70
12013;DHT22;6065;48.138;16.402;2023-07-31T00:04:44;21.70;94.60
12013;DHT22;6065;48.138;16.402;2023-07-31T00:07:11;21.80;94.40
12013;DHT22;6065;48.138;16.402;2023-07-31T00:09:38;21.80;94.10
12013;DHT22;6065;48.138;16.402;2023-07-31T00:12:05;21.70;94.20
12013;DHT22;6065;48.138;16.402;2023-07-31T00:14:33;21.70;94.30
12013;DHT22;6065;48.138;16.402;2023-07-31T00:17:00;21.70;94.40
12013;DHT22;6065;48.138;16.402;2023-07-31T00:19:26;21.70;94.00
12013;DHT22;6065;48.138;16.402;2023-07-31T00:21:53;21.70;94.20
12013;DHT22;6065;48.138;16.402;2023-07-31T00:24:21;21.70;94.20
12013;DHT22;6065;48.138;16.402;2023-07-31T00:26:48;21.70;94.30
12013;DHT22;6065;48.138;16.402;2023-07-31T00:29:14;21.70;94.20
12013;DHT22;6065;48.138;16.402;2023-07-31T00:31:42;21.60;94.30
12013;DHT22;6065;48.138;16.402;2023-07-31T00:34:09;21.60;94.40
12013;DHT22;6065;48.138;16.402;2023-07-31T00:36:36;21.60;94.00
12013;DHT22;6065;48.138;16.402;2023-07-31T00:39:02;21.50;94.00
12013;DHT22;6065;48.138;16.402;2023-07-31T00:41:30;21.50;94.00
12013;DHT22;6065;48.138;16.402;2023-07-31T00:43:56;21.50;94.00
12013;DHT22;6065;48.138;16.402;2023-07-31T00:46:23;21.50;94.10
12013;DHT22;6065;48.138;16.402;2023-07-31T00:48:51;21.50;94.20
12013;DHT22;6065;48.138;16.402;2023-07-31T00:51:18;21.40;94.40
12013;DHT22;6065;48.138;16.402;2023-07-31T00:53:44;21.40;94.90
12013;DHT22;6065;48.138;16.402;2023-07-31T00:56:11;21.30;95.30
12013;DHT22;6065;48.138;16.402;2023-07-31T00:58:38;21.30;95.60
12013;DHT22;6065;48.138;16.402;2023-07-31T01:01:06;21.20;95.70
12013;DHT22;6065;48.138;16.402;2023-07-31T01:03:32;21.20;95.90
12013;DHT22;6065;48.138;16.402;2023-07-31T01:06:03;21.20;96.00
12013;DHT22;6065;48.138;16.402;2023-07-31T01:08:32;21.10;96.00
12013;DHT22;6065;48.138;16.402;2023-07-31T01:11:00;21.10;96.10
12013;DHT22;6065;48.138;16.402;2023-07-31T01:13:28;21.00;96.10
12013;DHT22;6065;48.138;16.402;2023-07-31T01:15:55;21.00;96.10
12013;DHT22;6065;48.138;16.402;2023-07-31T01:18:22;21.00;96.10
12013;DHT22;6065;48.138;16.402;2023-07-31T01:20:51;20.90;96.20
12013;DHT22;6065;48.138;16.402;2023-07-31T01:23:35;20.90;96.50
12013;DHT22;6065;48.138;16.402;2023-07-31T01:26:08;20.90;96.30
12013;DHT22;6065;48.138;16.402;2023-07-31T01:28:40;20.80;96.40
12013;DHT22;6065;48.138;16.402;2023-07-31T01:31:12;20.80;96.60
12013;DHT22;6065;48.138;16.402;2023-07-31T01:33:40;20.80;96.70
12013;DHT22;6065;48.138;16.402;2023-07-31T01:36:07;20.80;96.40
12013;DHT22;6065;48.138;16.402;2023-07-31T01:38:34;20.70;96.60
12013;DHT22;6065;48.138;16.402;2023-07-31T01:41:00;20.70;96.80
12013;DHT22;6065;48.138;16.402;2023-07-31T01:43:28;20.70;96.90
12013;DHT22;6065;48.138;16.402;2023-07-31T01:45:55;20.70;96.90
12013;DHT22;6065;48.138;16.402;2023-07-31T01:48:22;20.70;96.80
12013;DHT22;6065;48.138;16.402;2023-07-31T01:50:48;20.80;96.50
12013;DHT22;6065;48.138;16.402;2023-07-31T01:53:15;20.70;96.30
12013;DHT22;6065;48.138;16.402;2023-07-31T01:55:42;20.70;96.00
12013;DHT22;6065;48.138;16.402;2023-07-31T01:58:09;20.50;96.00
12013;DHT22;6065;48.138;16.402;2023-07-31T02:00:37;20.40;96.20
12013;DHT22;6065;48.138;16.402;2023-07-31T02:03:04;20.40;96.30
12013;DHT22;6065;48.138;16.402;2023-07-31T02:05:30;20.40;96.30
12013;DHT22;6065;48.138;16.402;2023-07-31T02:07:57;20.50;96.30
12013;DHT22;6065;48.138;16.402;2023-07-31T02:10:23;20.50;96.20
12013;DHT22;6065;48.138;16.402;2023-07-31T02:12:50;20.50;96.20
12013;DHT22;6065;48.138;16.402;2023-07-31T02:15:17;20.50;96.30
12013;DHT22;6065;48.138;16.402;2023-07-31T02:17:45;20.50;96.20
12013;DHT22;6065;48.138;16.402;2023-07-31T02:20:11;20.50;96.30
12013;DHT22;6065;48.138;16.402;2023-07-31T02:22:38;20.50;96.30
12013;DHT22;6065;48.138;16.402;2023-07-31T02:25:05;20.60;96.30
12013;DHT22;6065;48.138;16.402;2023-07-31T02:27:32;20.50;96.30
12013;DHT22;6065;48.138;16.402;2023-07-31T02:29:58;20.40;96.40
12013;DHT22;6065;48.138;16.402;2023-07-31T02:32:25;20.40;96.50
12013;DHT22;6065;48.138;16.402;2023-07-31T02:34:53;20.40;96.60
12013;DHT22;6065;48.138;16.402;2023-07-31T02:37:20;20.40;96.70
12013;DHT22;6065;48.138;16.402;2023-07-31T02:39:47;20.30;96.80
12013;DHT22;6065;48.138;16.402;2023-07-31T02:42:14;20.30;96.80
12013;DHT22;6065;48.138;16.402;2023-07-31T02:44:40;20.30;96.70
12013;DHT22;6065;48.138;16.402;2023-07-31T02:47:07;20.30;96.80
12013;DHT22;6065;48.138;16.402;2023-07-31T02:49:34;20.30;96.70
12013;DHT22;6065;48.138;16.402;2023-07-31T02:52:02;20.30;96.70
12013;DHT22;6065;48.138;16.402;2023-07-31T02:54:29;20.40;96.30
12013;DHT22;6065;48.138;16.402;2023-07-31T02:56:55;20.40;96.40
12013;DHT22;6065;48.138;16.402;2023-07-31T02:59:22;20.40;96.20
12013;DHT22;6065;48.138;16.402;2023-07-31T03:01:50;20.50;96.20
12013;DHT22;6065;48.138;16.402;2023-07-31T03:04:17;20.40;96.50
12013;DHT22;6065;48.138;16.402;2023-07-31T03:06:43;20.40;96.40
12013;DHT22;6065;48.138;16.402;2023-07-31T03:09:11;20.40;96.30
12013;DHT22;6065;48.138;16.402;2023-07-31T03:11:38;20.40;96.30
12013;DHT22;6065;48.138;16.402;2023-07-31T03:14:05;20.40;96.40
12013;DHT22;6065;48.138;16.402;2023-07-31T03:16:32;20.40;96.30
12013;DHT22;6065;48.138;16.402;2023-07-31T03:18:58;20.40;96.30
12013;DHT22;6065;48.138;16.402;2023-07-31T03:21:25;20.40;96.40
12013;DHT22;6065;48.138;16.402;2023-07-31T03:23:52;20.40;96.40
12013;DHT22;6065;48.138;16.402;2023-07-31T03:26:20;20.40;96.50
12013;DHT22;6065;48.138;16.402;2023-07-31T03:28:46;20.50;96.50
12013;DHT22;6065;48.138;16.402;2023-07-31T03:31:14;20.50;96.50
12013;DHT22;6065;48.138;16.402;2023-07-31T03:33:41;20.50;96.40
12013;DHT22;6065;48.138;16.402;2023-07-31T03:36:08;20.50;96.40
12013;DHT22;6065;48.138;16.402;2023-07-31T03:38:34;20.50;96.50
12013;DHT22;6065;48.138;16.402;2023-07-31T03:41:01;20.40;96.60
12013;DHT22;6065;48.138;16.402;2023-07-31T03:43:29;20.40;96.70
12013;DHT22;6065;48.138;16.402;2023-07-31T03:45:56;20.40;96.80
12013;DHT22;6065;48.138;16.402;2023-07-31T03:48:23;20.30;96.70
12013;DHT22;6065;48.138;16.402;2023-07-31T03:50:49;20.30;96.70
12013;DHT22;6065;48.138;16.402;2023-07-31T03:53:16;20.40;96.80
12013;DHT22;6065;48.138;16.402;2023-07-31T03:55:43;20.40;96.90
12013;DHT22;6065;48.138;16.402;2023-07-31T03:58:09;20.40;97.10
12013;DHT22;6065;48.138;16.402;2023-07-31T04:00:37;20.30;97.30
12013;DHT22;6065;48.138;16.402;2023-07-31T04:03:04;20.30;97.50
12013;DHT22;6065;48.138;16.402;2023-07-31T04:05:31;20.20;97.70
12013;DHT22;6065;48.138;16.402;2023-07-31T04:07:58;20.30;97.90
12013;DHT22;6065;48.138;16.402;2023-07-31T04:10:25;20.30;98.00
12013;DHT22;6065;48.138;16.402;2023-07-31T04:12:51;20.30;98.10
12013;DHT22;6065;48.138;16.402;2023-07-31T04:15:18;20.40;98.20
12013;DHT22;6065;48.138;16.402;2023-07-31T04:17:46;20.40;98.30
12013;DHT22;6065;48.138;16.402;2023-07-31T04:20:13;20.40;98.30
12013;DHT22;6065;48.138;16.402;2023-07-31T04:22:39;20.40;98.30
12013;DHT22;6065;48.138;16.402;2023-07-31T04:25:06;20.40;98.40
12013;DHT22;6065;48.138;16.402;2023-07-31T04:27:33;20.40;98.30
12013;DHT22;6065;48.138;16.402;2023-07-31T04:30:00;20.40;98.40
12013;DHT22;6065;48.138;16.402;2023-07-31T04:32:26;20.40;98.40
12013;DHT22;6065;48.138;16.402;2023-07-31T04:34:56;20.40;97.90
12013;DHT22;6065;48.138;16.402;2023-07-31T04:37:23;20.40;97.90
12013;DHT22;6065;48.138;16.402;2023-07-31T04:39:49;20.40;98.20
12013;DHT22;6065;48.138;16.402;2023-07-31T04:42:16;20.40;97.90
12013;DHT22;6065;48.138;16.402;2023-07-31T04:44:43;20.40;97.80
12013;DHT22;6065;48.138;16.402;2023-07-31T04:47:09;20.40;97.60
12013;DHT22;6065;48.138;16.402;2023-07-31T04:49:36;20.40;97.30
12013;DHT22;6065;48.138;16.402;2023-07-31T04:52:22;20.50;97.30
12013;DHT22;6065;48.138;16.402;2023-07-31T04:54:49;20.50;97.30
12013;DHT22;6065;48.138;16.402;2023-07-31T04:57:16;20.50;97.30
12013;DHT22;6065;48.138;16.402;2023-07-31T04:59:43;20.50;97.40
12013;DHT22;6065;48.138;16.402;2023-07-31T05:02:11;20.50;97.40
12013;DHT22;6065;48.138;16.402;2023-07-31T05:04:38;20.50;97.30
12013;DHT22;6065;48.138;16.402;2023-07-31T05:07:05;20.50;97.30
12013;DHT22;6065;48.138;16.402;2023-07-31T05:09:33;20.50;97.20
12013;DHT22;6065;48.138;16.402;2023-07-31T05:11:59;20.50;97.10
12013;DHT22;6065;48.138;16.402;2023-07-31T05:14:26;20.60;97.10
12013;DHT22;6065;48.138;16.402;2023-07-31T05:16:53;20.60;97.00
12013;DHT22;6065;48.138;16.402;2023-07-31T05:19:19;20.60;97.00
12013;DHT22;6065;48.138;16.402;2023-07-31T05:21:46;20.70;97.30
12013;DHT22;6065;48.138;16.402;2023-07-31T05:24:13;20.70;96.90
12013;DHT22;6065;48.138;16.402;2023-07-31T05:26:41;20.70;96.90
12013;DHT22;6065;48.138;16.402;2023-07-31T05:29:08;20.70;96.40
12013;DHT22;6065;48.138;16.402;2023-07-31T05:31:34;20.80;96.30
12013;DHT22;6065;48.138;16.402;2023-07-31T05:34:01;20.80;96.10
12013;DHT22;6065;48.138;16.402;2023-07-31T05:36:28;20.80;95.80
12013;DHT22;6065;48.138;16.402;2023-07-31T05:38:54;20.80;95.80
12013;DHT22;6065;48.138;16.402;2023-07-31T05:41:21;20.90;95.60
12013;DHT22;6065;48.138;16.402;2023-07-31T05:43:49;20.80;95.50
12013;DHT22;6065;48.138;16.402;2023-07-31T05:46:16;20.90;95.60
12013;DHT22;6065;48.138;16.402;2023-07-31T05:48:43;20.90;95.60
12013;DHT22;6065;48.138;16.402;2023-07-31T05:51:10;20.90;95.70
12013;DHT22;6065;48.138;16.402;2023-07-31T05:53:37;20.90;95.50
12013;DHT22;6065;48.138;16.402;2023-07-31T05:56:06;21.00;95.40
12013;DHT22;6065;48.138;16.402;2023-07-31T05:58:32;21.00;95.40
12013;DHT22;6065;48.138;16.402;2023-07-31T06:01:00;21.00;95.40
12013;DHT22;6065;48.138;16.402;2023-07-31T06:03:27;21.10;94.90
12013;DHT22;6065;48.138;16.402;2023-07-31T06:05:54;21.10;95.00
12013;DHT22;6065;48.138;16.402;2023-07-31T06:08:20;21.10;94.70
12013;DHT22;6065;48.138;16.402;2023-07-31T06:10:47;21.20;94.60
12013;DHT22;6065;48.138;16.402;2023-07-31T06:13:14;21.20;94.50
12013;DHT22;6065;48.138;16.402;2023-07-31T06:15:40;21.30;94.40
12013;DHT22;6065;48.138;16.402;2023-07-31T06:18:08;21.30;94.30
12013;DHT22;6065;48.138;16.402;2023-07-31T06:20:35;21.40;94.30
12013;DHT22;6065;48.138;16.402;2023-07-31T06:23:02;21.40;94.30
12013;DHT22;6065;48.138;16.402;2023-07-31T06:25:29;21.50;94.40
12013;DHT22;6065;48.138;16.402;2023-07-31T06:27:55;21.50;94.10
12013;DHT22;6065;48.138;16.402;2023-07-31T06:30:22;21.60;93.90
12013;DHT22;6065;48.138;16.402;2023-07-31T06:32:49;21.60;93.70
12013;DHT22;6065;48.138;16.402;2023-07-31T06:35:17;21.60;93.20
12013;DHT22;6065;48.138;16.402;2023-07-31T06:37:44;21.70;93.20
12013;DHT22;6065;48.138;16.402;2023-07-31T06:40:11;21.60;93.10
12013;DHT22;6065;48.138;16.402;2023-07-31T06:42:37;21.60;92.90
12013;DHT22;6065;48.138;16.402;2023-07-31T06:45:04;21.60;92.90
12013;DHT22;6065;48.138;16.402;2023-07-31T06:47:31;21.60;93.10
12013;DHT22;6065;48.138;16.402;2023-07-31T06:49:58;21.60;92.50
12013;DHT22;6065;48.138;16.402;2023-07-31T06:52:26;21.60;92.10
12013;DHT22;6065;48.138;16.402;2023-07-31T06:55:00;21.60;91.80
12013;DHT22;6065;48.138;16.402;2023-07-31T06:57:27;21.70;91.80
12013;DHT22;6065;48.138;16.402;2023-07-31T06:59:54;21.70;91.50
12013;DHT22;6065;48.138;16.402;2023-07-31T07:02:20;21.70;91.20
12013;DHT22;6065;48.138;16.402;2023-07-31T07:04:47;21.70;91.20
12013;DHT22;6065;48.138;16.402;2023-07-31T07:07:15;21.80;91.10
12013;DHT22;6065;48.138;16.402;2023-07-31T07:09:43;21.80;90.60
12013;DHT22;6065;48.138;16.402;2023-07-31T07:12:09;21.80;90.70
12013;DHT22;6065;48.138;16.402;2023-07-31T07:14:36;21.80;90.40
12013;DHT22;6065;48.138;16.402;2023-07-31T07:17:03;21.90;90.40
12013;DHT22;6065;48.138;16.402;2023-07-31T07:19:30;21.90;90.10
12013;DHT22;6065;48.138;16.402;2023-07-31T07:21:57;21.90;90.10
12013;DHT22;6065;48.138;16.402;2023-07-31T07:24:25;22.00;89.10
12013;DHT22;6065;48.138;16.402;2023-07-31T07:26:53;22.00;88.40
12013;DHT22;6065;48.138;16.402;2023-07-31T07:29:19;22.10;88.70
12013;DHT22;6065;48.138;16.402;2023-07-31T07:31:46;22.10;88.20
12013;DHT22;6065;48.138;16.402;2023-07-31T07:34:13;22.20;87.50
12013;DHT22;6065;48.138;16.402;2023-07-31T07:36:40;22.20;87.50
12013;DHT22;6065;48.138;16.402;2023-07-31T07:39:06;22.30;85.60
12013;DHT22;6065;48.138;16.402;2023-07-31T07:41:33;22.30;86.20
12013;DHT22;6065;48.138;16.402;2023-07-31T07:44:01;22.30;86.90
12013;DHT22;6065;48.138;16.402;2023-07-31T07:46:28;22.30;87.00
12013;DHT22;6065;48.138;16.402;2023-07-31T07:48:54;22.40;87.00
12013;DHT22;6065;48.138;16.402;2023-07-31T07:51:21;22.40;85.30
12013;DHT22;6065;48.138;16.402;2023-07-31T07:53:48;22.40;85.00
12013;DHT22;6065;48.138;16.402;2023-07-31T07:56:14;22.50;85.60
12013;DHT22;6065;48.138;16.402;2023-07-31T07:58:41;22.50;85.70
12013;DHT22;6065;48.138;16.402;2023-07-31T08:01:09;22.60;85.70
12013;DHT22;6065;48.138;16.402;2023-07-31T08:03:36;22.60;85.00
12013;DHT22;6065;48.138;16.402;2023-07-31T08:06:03;22.60;85.80
12013;DHT22;6065;48.138;16.402;2023-07-31T08:08:29;22.70;85.20
12013;DHT22;6065;48.138;16.402;2023-07-31T08:10:56;22.70;85.50
12013;DHT22;6065;48.138;16.402;2023-07-31T08:13:23;22.70;85.20
12013;DHT22;6065;48.138;16.402;2023-07-31T08:15:49;22.80;84.50
12013;DHT22;6065;48.138;16.402;2023-07-31T08:18:17;22.80;84.80
12013;DHT22;6065;48.138;16.402;2023-07-31T08:20:44;22.70;84.90
12013;DHT22;6065;48.138;16.402;2023-07-31T08:23:11;22.80;85.50
12013;DHT22;6065;48.138;16.402;2023-07-31T08:25:38;22.80;86.00
12013;DHT22;6065;48.138;16.402;2023-07-31T08:28:05;22.90;85.10
12013;DHT22;6065;48.138;16.402;2023-07-31T08:30:32;22.90;85.20
12013;DHT22;6065;48.138;16.402;2023-07-31T08:32:59;22.90;84.30
12013;DHT22;6065;48.138;16.402;2023-07-31T08:35:27;23.00;83.60
12013;DHT22;6065;48.138;16.402;2023-07-31T08:37:54;23.00;82.90
12013;DHT22;6065;48.138;16.402;2023-07-31T08:40:21;23.00;83.50
12013;DHT22;6065;48.138;16.402;2023-07-31T08:42:48;23.00;83.70
12013;DHT22;6065;48.138;16.402;2023-07-31T08:45:16;23.10;84.40
12013;DHT22;6065;48.138;16.402;2023-07-31T08:47:44;23.10;83.00
12013;DHT22;6065;48.138;16.402;2023-07-31T08:50:11;23.00;82.90
12013;DHT22;6065;48.138;16.402;2023-07-31T08:52:40;23.10;83.90
12013;DHT22;6065;48.138;16.402;2023-07-31T08:55:07;23.10;82.70
12013;DHT22;6065;48.138;16.402;2023-07-31T08:57:34;23.20;81.30
12013;DHT22;6065;48.138;16.402;2023-07-31T09:00:01;23.20;81.00
12013;DHT22;6065;48.138;16.402;2023-07-31T09:02:34;23.20;81.30
12013;DHT22;6065;48.138;16.402;2023-07-31T09:05:01;23.30;81.60
12013;DHT22;6065;48.138;16.402;2023-07-31T09:07:29;23.40;81.90
12013;DHT22;6065;48.138;16.402;2023-07-31T09:09:57;23.40;82.10
12013;DHT22;6065;48.138;16.402;2023-07-31T09:12:24;23.50;82.00
12013;DHT22;6065;48.138;16.402;2023-07-31T09:14:51;23.50;82.60
12013;DHT22;6065;48.138;16.402;2023-07-31T09:17:28;23.60;81.00
12013;DHT22;6065;48.138;16.402;2023-07-31T09:19:54;23.70;81.00
12013;DHT22;6065;48.138;16.402;2023-07-31T09:22:25;23.70;81.50
12013;DHT22;6065;48.138;16.402;2023-07-31T09:24:58;23.70;81.20
12013;DHT22;6065;48.138;16.402;2023-07-31T09:27:33;23.80;81.60
12013;DHT22;6065;48.138;16.402;2023-07-31T09:30:11;23.90;81.80
12013;DHT22;6065;48.138;16.402;2023-07-31T09:32:38;23.90;81.80
12013;DHT22;6065;48.138;16.402;2023-07-31T09:35:12;24.00;83.20
12013;DHT22;6065;48.138;16.402;2023-07-31T09:37:39;24.00;82.40
12013;DHT22;6065;48.138;16.402;2023-07-31T09:40:08;24.10;80.60
12013;DHT22;6065;48.138;16.402;2023-07-31T09:42:35;24.20;81.80
12013;DHT22;6065;48.138;16.402;2023-07-31T09:45:07;24.20;81.60
12013;DHT22;6065;48.138;16.402;2023-07-31T09:47:35;24.30;83.40
12013;DHT22;6065;48.138;16.402;2023-07-31T09:50:02;24.30;82.80
12013;DHT22;6065;48.138;16.402;2023-07-31T09:52:33;24.40;80.50
12013;DHT22;6065;48.138;16.402;2023-07-31T09:55:00;24.40;80.00
12013;DHT22;6065;48.138;16.402;2023-07-31T09:57:28;24.50;81.80
12013;DHT22;6065;48.138;16.402;2023-07-31T09:59:54;24.50;81.00
12013;DHT22;6065;48.138;16.402;2023-07-31T10:02:22;24.50;80.80
12013;DHT22;6065;48.138;16.402;2023-07-31T10:04:49;24.60;80.30
12013;DHT22;6065;48.138;16.402;2023-07-31T10:07:16;24.60;80.90
12013;DHT22;6065;48.138;16.402;2023-07-31T10:09:44;24.60;81.50
12013;DHT22;6065;48.138;16.402;2023-07-31T10:12:11;24.70;81.70
12013;DHT22;6065;48.138;16.402;2023-07-31T10:14:41;24.70;82.50
12013;DHT22;6065;48.138;16.402;2023-07-31T10:17:08;24.80;82.70
12013;DHT22;6065;48.138;16.402;2023-07-31T10:19:35;24.80;81.40
12013;DHT22;6065;48.138;16.402;2023-07-31T10:22:03;24.80;81.10
12013;DHT22;6065;48.138;16.402;2023-07-31T10:24:30;24.80;80.70
12013;DHT22;6065;48.138;16.402;2023-07-31T10:26:57;24.90;77.40
12013;DHT22;6065;48.138;16.402;2023-07-31T10:29:24;24.90;76.70
12013;DHT22;6065;48.138;16.402;2023-07-31T10:31:53;25.00;77.80
12013;DHT22;6065;48.138;16.402;2023-07-31T10:34:20;25.10;78.50
12013;DHT22;6065;48.138;16.402;2023-07-31T10:36:47;25.10;78.20
12013;DHT22;6065;48.138;16.402;2023-07-31T10:39:33;25.10;78.40
12013;DHT22;6065;48.138;16.402;2023-07-31T10:42:06;25.20;79.50
12013;DHT22;6065;48.138;16.402;2023-07-31T10:44:35;25.20;78.80
12013;DHT22;6065;48.138;16.402;2023-07-31T10:47:04;25.30;79.10
12013;DHT22;6065;48.138;16.402;2023-07-31T10:49:31;25.40;79.10
12013;DHT22;6065;48.138;16.402;2023-07-31T10:51:58;25.40;78.60
12013;DHT22;6065;48.138;16.402;2023-07-31T10:54:25;25.50;78.90
12013;DHT22;6065;48.138;16.402;2023-07-31T10:56:53;25.60;78.00
12013;DHT22;6065;48.138;16.402;2023-07-31T10:59:20;25.70;76.70
12013;DHT22;6065;48.138;16.402;2023-07-31T11:01:54;25.70;75.70
12013;DHT22;6065;48.138;16.402;2023-07-31T11:04:24;25.80;75.50
12013;DHT22;6065;48.138;16.402;2023-07-31T11:06:57;25.90;76.50
12013;DHT22;6065;48.138;16.402;2023-07-31T11:09:24;25.90;76.20
12013;DHT22;6065;48.138;16.402;2023-07-31T11:11:53;26.00;75.70
12013;DHT22;6065;48.138;16.402;2023-07-31T11:14:20;26.00;74.60
12013;DHT22;6065;48.138;16.402;2023-07-31T11:16:49;26.00;75.50
12013;DHT22;6065;48.138;16.402;2023-07-31T11:19:20;26.10;77.50
12013;DHT22;6065;48.138;16.402;2023-07-31T11:21:49;26.20;77.30
12013;DHT22;6065;48.138;16.402;2023-07-31T11:24:15;26.30;76.00
12013;DHT22;6065;48.138;16.402;2023-07-31T11:26:47;26.30;74.50
12013;DHT22;6065;48.138;16.402;2023-07-31T11:29:14;26.30;74.70
12013;DHT22;6065;48.138;16.402;2023-07-31T11:31:43;26.30;74.10
12013;DHT22;6065;48.138;16.402;2023-07-31T11:34:10;26.30;74.30
12013;DHT22;6065;48.138;16.402;2023-07-31T11:36:37;26.30;76.20
12013;DHT22;6065;48.138;16.402;2023-07-31T11:39:09;26.40;74.90
12013;DHT22;6065;48.138;16.402;2023-07-31T11:41:36;26.40;73.00
12013;DHT22;6065;48.138;16.402;2023-07-31T11:44:06;26.40;72.60
12013;DHT22;6065;48.138;16.402;2023-07-31T11:46:33;26.60;72.50
12013;DHT22;6065;48.138;16.402;2023-07-31T11:49:00;26.70;69.90
12013;DHT22;6065;48.138;16.402;2023-07-31T11:51:27;26.70;70.60
12013;DHT22;6065;48.138;16.402;2023-07-31T11:53:56;26.70;71.60
12013;DHT22;6065;48.138;16.402;2023-07-31T11:56:25;26.80;69.50
12013;DHT22;6065;48.138;16.402;2023-07-31T11:58:53;26.90;70.30
12013;DHT22;6065;48.138;16.402;2023-07-31T12:01:20;27.00;69.40
12013;DHT22;6065;48.138;16.402;2023-07-31T12:03:47;27.00;71.20
12013;DHT22;6065;48.138;16.402;2023-07-31T12:06:14;27.00;71.50
12013;DHT22;6065;48.138;16.402;2023-07-31T12:08:41;27.00;71.80
12013;DHT22;6065;48.138;16.402;2023-07-31T12:11:08;27.10;71.30
12013;DHT22;6065;48.138;16.402;2023-07-31T12:13:36;27.20;71.70
12013;DHT22;6065;48.138;16.402;2023-07-31T12:16:03;27.20;71.30
12013;DHT22;6065;48.138;16.402;2023-07-31T12:18:33;27.30;71.50
12013;DHT22;6065;48.138;16.402;2023-07-31T12:21:00;27.30;72.30
12013;DHT22;6065;48.138;16.402;2023-07-31T12:23:28;27.30;72.40
12013;DHT22;6065;48.138;16.402;2023-07-31T12:26:01;27.40;72.50
12013;DHT22;6065;48.138;16.402;2023-07-31T12:28:28;27.40;69.20
12013;DHT22;6065;48.138;16.402;2023-07-31T12:30:58;27.20;69.00
12013;DHT22;6065;48.138;16.402;2023-07-31T12:33:30;27.10;68.50
12013;DHT22;6065;48.138;16.402;2023-07-31T12:35:57;27.20;69.20
12013;DHT22;6065;48.138;16.402;2023-07-31T12:38:24;27.20;70.20
12013;DHT22;6065;48.138;16.402;2023-07-31T12:40:51;27.30;70.40
12013;DHT22;6065;48.138;16.402;2023-07-31T12:43:17;27.40;71.20
12013;DHT22;6065;48.138;16.402;2023-07-31T12:45:44;27.50;71.00
12013;DHT22;6065;48.138;16.402;2023-07-31T12:48:14;27.50;71.50
12013;DHT22;6065;48.138;16.402;2023-07-31T12:50:40;27.60;71.20
12013;DHT22;6065;48.138;16.402;2023-07-31T12:53:07;27.70;70.60
12013;DHT22;6065;48.138;16.402;2023-07-31T12:55:34;27.80;71.70
12013;DHT22;6065;48.138;16.402;2023-07-31T12:58:02;27.90;70.70
12013;DHT22;6065;48.138;16.402;2023-07-31T13:00:29;27.90;70.20
12013;DHT22;6065;48.138;16.402;2023-07-31T13:02:55;27.90;70.60
12013;DHT22;6065;48.138;16.402;2023-07-31T13:05:23;28.00;68.90
12013;DHT22;6065;48.138;16.402;2023-07-31T13:07:50;28.00;69.90
12013;DHT22;6065;48.138;16.402;2023-07-31T13:10:17;28.00;70.30
12013;DHT22;6065;48.138;16.402;2023-07-31T13:12:43;28.00;70.90
12013;DHT22;6065;48.138;16.402;2023-07-31T13:15:10;28.10;70.10
12013;DHT22;6065;48.138;16.402;2023-07-31T13:17:39;28.10;68.40
12013;DHT22;6065;48.138;16.402;2023-07-31T13:20:06;28.20;69.70
12013;DHT22;6065;48.138;16.402;2023-07-31T13:22:35;28.20;69.70
12013;DHT22;6065;48.138;16.402;2023-07-31T13:25:01;28.20;68.20
12013;DHT22;6065;48.138;16.402;2023-07-31T13:27:28;28.20;68.80
12013;DHT22;6065;48.138;16.402;2023-07-31T13:29:55;28.30;69.50
12013;DHT22;6065;48.138;16.402;2023-07-31T13:32:21;28.40;68.40
12013;DHT22;6065;48.138;16.402;2023-07-31T13:34:48;28.40;68.60
12013;DHT22;6065;48.138;16.402;2023-07-31T13:37:15;28.50;68.00
12013;DHT22;6065;48.138;16.402;2023-07-31T13:39:43;28.50;65.90
12013;DHT22;6065;48.138;16.402;2023-07-31T13:42:10;28.50;66.30
12013;DHT22;6065;48.138;16.402;2023-07-31T13:44:38;28.40;65.20
12013;DHT22;6065;48.138;16.402;2023-07-31T13:47:04;28.40;65.80
12013;DHT22;6065;48.138;16.402;2023-07-31T13:49:31;28.40;66.60
12013;DHT22;6065;48.138;16.402;2023-07-31T13:51:58;28.50;66.30
12013;DHT22;6065;48.138;16.402;2023-07-31T13:54:25;28.50;66.80
12013;DHT22;6065;48.138;16.402;2023-07-31T13:56:53;28.50;66.90
12013;DHT22;6065;48.138;16.402;2023-07-31T13:59:20;28.50;65.10
12013;DHT22;6065;48.138;16.402;2023-07-31T14:01:47;28.40;65.60
12013;DHT22;6065;48.138;16.402;2023-07-31T14:04:14;28.40;66.30
12013;DHT22;6065;48.138;16.402;2023-07-31T14:06:41;28.50;66.20
12013;DHT22;6065;48.138;16.402;2023-07-31T14:09:07;28.50;65.80
12013;DHT22;6065;48.138;16.402;2023-07-31T14:11:34;28.60;66.70
12013;DHT22;6065;48.138;16.402;2023-07-31T14:14:02;28.60;66.20
12013;DHT22;6065;48.138;16.402;2023-07-31T14:16:30;28.60;66.70
12013;DHT22;6065;48.138;16.402;2023-07-31T14:18:56;28.60;66.80
12013;DHT22;6065;48.138;16.402;2023-07-31T14:21:24;28.60;66.20
12013;DHT22;6065;48.138;16.402;2023-07-31T14:23:51;28.50;65.90
12013;DHT22;6065;48.138;16.402;2023-07-31T14:26:17;28.50;65.80
12013;DHT22;6065;48.138;16.402;2023-07-31T14:28:44;28.40;65.80
12013;DHT22;6065;48.138;16.402;2023-07-31T14:31:12;28.40;66.30
12013;DHT22;6065;48.138;16.402;2023-07-31T14:33:39;28.30;66.00
12013;DHT22;6065;48.138;16.402;2023-07-31T14:36:06;28.20;65.80
12013;DHT22;6065;48.138;16.402;2023-07-31T14:38:32;28.10;66.40
12013;DHT22;6065;48.138;16.402;2023-07-31T14:40:59;28.10;66.20
12013;DHT22;6065;48.138;16.402;2023-07-31T14:43:26;28.10;66.60
12013;DHT22;6065;48.138;16.402;2023-07-31T14:45:52;28.10;66.60
12013;DHT22;6065;48.138;16.402;2023-07-31T14:48:22;28.10;66.60
12013;DHT22;6065;48.138;16.402;2023-07-31T14:50:49;28.10;66.90
12013;DHT22;6065;48.138;16.402;2023-07-31T14:53:16;28.10;66.90
12013;DHT22;6065;48.138;16.402;2023-07-31T14:55:43;28.20;66.60
12013;DHT22;6065;48.138;16.402;2023-07-31T14:58:10;28.20;65.60
12013;DHT22;6065;48.138;16.402;2023-07-31T15:00:39;28.30;66.10
12013;DHT22;6065;48.138;16.402;2023-07-31T15:03:05;28.30;66.10
12013;DHT22;6065;48.138;16.402;2023-07-31T15:05:33;28.40;65.90
12013;DHT22;6065;48.138;16.402;2023-07-31T15:08:00;28.40;66.10
12013;DHT22;6065;48.138;16.402;2023-07-31T15:10:27;28.40;65.70
12013;DHT22;6065;48.138;16.402;2023-07-31T15:12:54;28.40;65.50
12013;DHT22;6065;48.138;16.402;2023-07-31T15:15:20;28.50;65.40
12013;DHT22;6065;48.138;16.402;2023-07-31T15:17:47;28.40;65.70
12013;DHT22;6065;48.138;16.402;2023-07-31T15:20:14;28.40;66.00
12013;DHT22;6065;48.138;16.402;2023-07-31T15:22:42;28.50;66.60
12013;DHT22;6065;48.138;16.402;2023-07-31T15:25:09;28.50;66.90
12013;DHT22;6065;48.138;16.402;2023-07-31T15:27:35;28.50;65.60
12013;DHT22;6065;48.138;16.402;2023-07-31T15:30:02;28.40;66.00
12013;DHT22;6065;48.138;16.402;2023-07-31T15:32:30;28.40;66.50